Time;durP1;ratioP1;P1;durP2;ratioP2;P2;SDS_P1;SDS_P2;PMS_P1;PMS_P2;Temp;Humidity;BMP_temperature;BMP_pressure;BME280_temperature;BME280_humidity;BME280_pressure;Samples;Min_cycle;Max_cycle;Signal;HPM_P1;HPM_P2
2023/07/02 00:00:34;;;;;;;11.63;11.23;;;;;;;-141.02;100.00;81275.25;5112601;28;20234;-67
2023/07/02 00:07:00;;;;;;;11.45;11.05;;;;;;;-141.02;100.00;82020.88;5112701;28;20579;-57
2023/07/02 00:09:50;;;;;;;11.82;11.43;;;;;;;-141.02;100.00;82020.88;5112896;28;20193;-58
2023/07/02 00:12:17;;;;;;;11.65;11.25;;;;;;;-141.02;100.00;82766.69;5112811;28;20220;-60
2023/07/02 00:14:44;;;;;;;11.82;11.43;;;;;;;-141.02;100.00;81275.25;5112846;28;20745;-69
2023/07/02 00:17:13;;;;;;;12.15;11.75;;;;;;;-141.02;100.00;80778.25;5112791;28;20250;-70
2023/07/02 00:19:41;;;;;;;12.30;11.80;;;;;;;-141.02;100.00;81523.75;5112546;28;20199;-70
2023/07/02 00:22:10;;;;;;;12.43;11.93;;;;;;;-141.02;100.00;81772.31;5112719;28;20201;-62
2023/07/02 00:28:35;;;;;;;12.75;12.25;;;;;;;-141.02;100.00;81275.25;5112542;28;20216;-56
2023/07/02 00:31:02;;;;;;;12.90;12.40;;;;;;;-141.02;100.00;81026.72;5112370;28;20203;-55
2023/07/02 00:34:09;;;;;;;12.98;12.48;;;;;;;-141.02;100.00;79039.28;5112675;28;20197;-58
2023/07/02 00:37:07;;;;;;;13.27;12.77;;;;;;;-141.02;100.00;78046.00;5112333;28;20197;-57
2023/07/02 00:43:30;;;;;;;12.38;11.98;;;;;;;-141.02;100.00;80529.75;5112310;28;20214;-55
2023/07/02 00:46:24;;;;;;;12.07;11.68;;;;;;;-141.02;100.00;80778.25;5112497;28;20197;-55
2023/07/02 00:49:18;;;;;;;12.10;11.70;;;;;;;-141.02;100.00;81523.75;5112250;28;20193;-55
2023/07/02 00:51:45;;;;;;;11.50;11.10;;;;;;;-141.02;100.00;82518.06;5112199;28;20208;-55
2023/07/02 00:57:34;;;;;;;11.18;10.77;;;;;;;-141.02;100.00;82766.69;5112270;28;20176;-54
2023/07/02 01:00:03;;;;;;;11.40;11.00;;;;;;;-141.02;100.00;82518.06;5112337;28;20231;-55
2023/07/02 01:03:02;;;;;;;11.38;10.98;;;;;;;-141.02;100.00;81772.31;5112419;28;20250;-55
2023/07/02 01:05:35;;;;;;;11.63;11.23;;;;;;;-141.02;100.00;81275.25;5112067;28;20201;-57
2023/07/02 01:08:02;;;;;;;11.90;11.50;;;;;;;-141.02;100.00;81026.72;5114466;28;20276;-55
2023/07/02 01:10:30;;;;;;;12.05;11.65;;;;;;;-141.02;100.00;81026.72;5115903;28;20288;-55
2023/07/02 01:13:01;;;;;;;12.05;11.65;;;;;;;-141.02;100.00;81026.72;5116255;28;20193;-55
2023/07/02 01:15:46;;;;;;;12.05;11.65;;;;;;;-141.02;100.00;81275.25;5115830;28;20185;-66
2023/07/02 01:18:15;;;;;;;12.10;11.70;;;;;;;-141.02;100.00;81772.31;5116092;28;20250;-54
2023/07/02 01:20:44;;;;;;;11.98;11.57;;;;;;;-141.02;100.00;82269.47;5116059;28;20297;-55
2023/07/02 01:23:12;;;;;;;11.75;11.35;;;;;;;-141.02;100.00;82020.88;5115744;28;20229;-55
2023/07/02 01:25:39;;;;;;;12.00;11.60;;;;;;;-141.02;100.00;82269.47;5115925;28;20193;-56
2023/07/02 01:28:06;;;;;;;11.73;11.32;;;;;;;-141.02;100.00;82269.47;5115608;28;20262;-56
2023/07/02 01:30:33;;;;;;;11.63;11.23;;;;;;;-141.02;100.00;82518.06;5115691;28;20230;-55
2023/07/02 01:33:00;;;;;;;11.80;11.40;;;;;;;-141.02;100.00;82766.69;5115759;28;20246;-55
2023/07/02 01:35:27;;;;;;;11.77;11.38;;;;;;;-141.02;100.00;81772.31;5115633;28;20736;-55
2023/07/02 01:37:55;;;;;;;12.10;11.70;;;;;;;-141.02;100.00;81772.31;5115756;28;20193;-55
2023/07/02 01:40:22;;;;;;;12.27;11.88;;;;;;;-141.02;100.00;82269.47;5115627;28;20642;-55
2023/07/02 01:42:49;;;;;;;14.30;13.80;;;;;;;-141.02;100.00;83015.31;5115401;28;20551;-58
2023/07/02 01:45:16;;;;;;;21.95;20.95;;;;;;;-141.02;100.00;84258.75;5115256;28;20285;-60
2023/07/02 01:47:43;;;;;;;24.73;23.52;;;;;;;-141.02;100.00;86249.22;5115355;28;20621;-58
2023/07/02 01:50:11;;;;;;;30.73;29.23;;;;;;;-141.02;100.00;88738.88;5115467;28;20250;-56
2023/07/02 01:52:38;;;;;;;30.45;29.05;;;;;;;-141.02;100.00;90233.56;5115158;28;20667;-56
2023/07/02 01:55:18;;;;;;;29.75;28.35;;;;;;;-141.02;100.00;92227.47;5115450;28;20193;-56
2023/07/02 01:57:45;;;;;;;30.60;29.10;;;;;;;-141.02;100.00;94471.97;5115036;28;20285;-55
2023/07/02 02:00:13;;;;;;;29.92;28.42;;;;;;;-141.02;100.00;96717.94;5115233;27;20270;-55
2023/07/02 02:02:40;;;;;;;21.83;20.92;;;;;;;-141.02;100.00;98715.56;5115341;28;20193;-55
2023/07/02 02:05:08;;;;;;;27.35;26.15;;;;;;;-141.02;100.00;100464.44;5115203;28;20613;-55
2023/07/02 02:07:35;;;;;;;26.95;25.75;;;;;;;-141.02;100.00;102464.22;5114845;28;20279;-55
2023/07/02 02:10:02;;;;;;;27.95;26.65;;;;;;;-141.02;100.00;103464.53;5114852;28;20200;-55
2023/07/02 02:12:31;;;;;;;26.60;25.40;;;;;;;-141.02;100.00;104214.97;5115073;28;20246;-55
2023/07/02 02:14:58;;;;;;;25.65;24.55;;;;;;;-141.02;100.00;105215.78;5115086;28;20224;-54
2023/07/02 02:17:25;;;;;;;26.20;25.00;;;;;;;-141.02;100.00;105966.59;5114905;28;20250;-54
2023/07/02 02:19:52;;;;;;;25.70;24.60;;;;;;;-141.02;100.00;106467.22;5114784;28;20225;-54
2023/07/02 02:22:19;;;;;;;25.77;24.58;;;;;;;-141.02;100.00;106717.56;5115086;28;20722;-54
2023/07/02 02:28:43;;;;;;;23.35;22.35;;;;;;;-141.02;100.00;107969.53;5114502;28;20212;-54
2023/07/02 02:31:34;;;;;;;19.80;19.08;;;;;;;-141.02;100.00;107971.50;5114412;28;20196;-54
2023/07/02 02:34:01;;;;;;;21.25;20.45;;;;;;;-141.02;100.00;107971.50;5114368;28;20698;-54
2023/07/02 02:36:28;;;;;;;21.17;20.38;;;;;;;-141.02;100.00;107971.50;5114596;28;20189;-53
2023/07/02 02:38:55;;;;;;;22.15;21.25;;;;;;;-141.02;100.00;107971.50;5114214;28;20196;-53
2023/07/02 02:41:21;;;;;;;22.13;21.23;;;;;;;-141.02;100.00;107971.50;5114213;28;20256;-53
2023/07/02 02:43:50;;;;;;;23.10;22.10;;;;;;;-141.02;100.00;107971.50;5114146;28;20221;-53
2023/07/02 02:46:21;;;;;;;22.73;21.73;;;;;;;-141.02;100.00;107971.50;5114139;28;20224;-53
2023/07/02 02:48:48;;;;;;;21.15;20.25;;;;;;;-141.02;100.00;107971.50;5114391;28;20192;-53
2023/07/02 02:54:36;;;;;;;23.50;22.50;;;;;;;-141.02;100.00;107971.50;5114415;28;20206;-53
2023/07/02 02:57:03;;;;;;;22.55;21.65;;;;;;;-141.02;100.00;107971.50;5114236;28;20266;-53
2023/07/02 03:03:34;;;;;;;20.00;19.20;;;;;;;-141.02;100.00;107971.50;5113989;28;20242;-53
2023/07/02 03:06:24;;;;;;;21.80;20.90;;;;;;;-141.02;100.00;107971.50;5113781;28;20192;-53
2023/07/02 03:08:56;;;;;;;21.23;20.33;;;;;;;-141.02;100.00;107971.50;5113985;28;20193;-53
2023/07/02 03:11:51;;;;;;;20.48;19.67;;;;;;;-141.02;100.00;107971.50;5113576;28;20204;-54
2023/07/02 03:14:44;;;;;;;19.75;18.95;;;;;;;-141.02;100.00;107971.50;5113534;28;20321;-53
2023/07/02 03:17:11;;;;;;;19.70;18.90;;;;;;;-141.02;100.00;107971.50;5113513;28;20225;-53
2023/07/02 03:19:37;;;;;;;18.25;17.55;;;;;;;-141.02;100.00;107971.50;5113734;28;20224;-54
2023/07/02 03:22:06;;;;;;;18.33;17.63;;;;;;;-141.02;100.00;107971.50;5113726;28;20286;-53
2023/07/02 03:24:33;;;;;;;16.75;16.15;;;;;;;-141.02;100.00;107969.53;5113358;28;20193;-54
2023/07/02 03:27:00;;;;;;;16.73;16.13;;;;;;;-141.02;100.00;107969.53;5113347;28;20254;-53
2023/07/02 03:29:27;;;;;;;14.77;14.27;;;;;;;-141.02;100.00;107969.53;5112850;28;20197;-54
2023/07/02 03:31:54;;;;;;;12.93;12.52;;;;;;;-141.02;100.00;107969.53;5113171;28;20246;-53
2023/07/02 03:34:22;;;;;;;12.75;12.35;;;;;;;-141.02;100.00;107719.09;5113644;28;20193;-53
2023/07/02 03:36:49;;;;;;;12.70;12.30;;;;;;;-141.02;100.00;107719.09;5113231;28;20189;-54
2023/07/02 03:39:17;;;;;;;12.70;12.30;;;;;;;-141.02;100.00;107218.31;5113136;28;20200;-53
2023/07/02 03:41:45;;;;;;;11.90;11.50;;;;;;;-141.02;100.00;107468.69;5113002;28;20235;-53
2023/07/02 03:44:12;;;;;;;12.10;11.70;;;;;;;-141.02;100.00;107218.31;5110103;28;20233;-53
2023/07/02 03:46:39;;;;;;;11.98;11.57;;;;;;;-141.02;100.00;106967.91;5113355;28;20254;-53
2023/07/02 03:49:06;;;;;;;11.85;11.45;;;;;;;-141.02;100.00;107468.69;5112891;28;20655;-53
2023/07/02 03:51:33;;;;;;;11.85;11.45;;;;;;;-141.02;100.00;107218.31;5113284;28;20226;-53
2023/07/02 03:54:00;;;;;;;14.52;14.02;;;;;;;-141.02;100.00;105966.59;5112810;28;20197;-54
2023/07/02 03:56:29;;;;;;;16.00;15.40;;;;;;;-141.02;100.00;103714.66;5113269;28;20250;-53
2023/07/02 03:58:56;;;;;;;16.75;16.05;;;;;;;-141.02;100.00;102964.34;5112720;28;20254;-54
2023/07/02 04:01:23;;;;;;;16.55;15.85;;;;;;;-141.02;100.00;101214.22;5112592;28;20224;-53
2023/07/02 04:03:51;;;;;;;16.05;15.35;;;;;;;-141.02;100.00;100964.25;5112801;28;20195;-53
2023/07/02 04:06:18;;;;;;;14.85;14.27;;;;;;;-141.02;100.00;101464.19;5112753;28;20204;-54
2023/07/02 04:08:45;;;;;;;14.30;13.80;;;;;;;-141.02;100.00;101714.16;5112965;28;20231;-54
2023/07/02 04:11:13;;;;;;;14.18;13.68;;;;;;;-141.02;100.00;101964.16;5112894;28;20282;-54
2023/07/02 04:13:41;;;;;;;14.10;13.60;;;;;;;-141.02;100.00;102464.22;5112871;28;20200;-54
2023/07/02 04:16:09;;;;;;;14.90;14.30;;;;;;;-141.02;100.00;101214.22;5112565;28;20658;-54
2023/07/02 04:18:36;;;;;;;15.00;14.40;;;;;;;-141.02;100.00;100214.53;5112803;28;20586;-54
2023/07/02 04:21:03;;;;;;;14.60;14.00;;;;;;;-141.02;100.00;100464.44;5112679;28;20192;-54
2023/07/02 04:23:30;;;;;;;14.27;13.77;;;;;;;-141.02;100.00;100714.34;5112757;28;20613;-53
2023/07/02 04:25:57;;;;;;;14.60;14.00;;;;;;;-141.02;100.00;100714.34;5112707;28;20282;-54
2023/07/02 04:28:24;;;;;;;14.40;13.90;;;;;;;-141.02;100.00;100464.44;5112464;28;20671;-53
2023/07/02 04:30:53;;;;;;;14.27;13.77;;;;;;;-141.02;100.00;100464.44;5112646;28;20197;-54
2023/07/02 04:36:41;;;;;;;14.85;14.35;;;;;;;-141.02;100.00;100214.53;5112421;28;20188;-54
2023/07/02 04:39:10;;;;;;;14.40;13.90;;;;;;;-141.02;100.00;99964.66;5112339;28;20293;-54
2023/07/02 04:41:37;;;;;;;15.30;14.70;;;;;;;-141.02;100.00;99964.66;5112368;28;20220;-54
2023/07/02 04:44:29;;;;;;;14.27;13.77;;;;;;;-141.02;100.00;100464.44;5113816;28;20229;-54
2023/07/02 04:46:58;;;;;;;14.60;14.10;;;;;;;-141.02;100.00;100214.53;5096009;28;20278;-54
2023/07/02 04:49:25;;;;;;;13.80;13.30;;;;;;;-141.02;100.00;100214.53;5096077;28;20582;-54
2023/07/02 04:51:53;;;;;;;13.52;13.02;;;;;;;-141.02;100.00;100214.53;5096077;28;20675;-54
2023/07/02 04:54:21;;;;;;;13.95;13.45;;;;;;;-141.02;100.00;99964.66;5095918;28;20193;-55
2023/07/02 04:56:49;;;;;;;14.20;13.70;;;;;;;-141.02;100.00;100214.53;5096247;28;20725;-54
2023/07/02 04:59:16;;;;;;;13.00;12.60;;;;;;;-141.02;100.00;100464.44;5095816;28;20290;-54
2023/07/02 05:01:45;;;;;;;13.63;13.13;;;;;;;-141.02;100.00;100214.53;5096069;28;20257;-54
2023/07/02 05:04:17;;;;;;;14.00;13.50;;;;;;;-141.02;100.00;100214.53;5095757;28;20205;-55
2023/07/02 05:06:45;;;;;;;14.07;13.57;;;;;;;-141.02;100.00;99464.97;5095732;28;20198;-54
2023/07/02 05:09:15;;;;;;;14.35;13.75;;;;;;;-141.02;100.00;99464.97;5095975;28;20255;-55
2023/07/02 05:11:48;;;;;;;15.10;14.40;;;;;;;-141.02;100.00;98715.56;5095695;28;20270;-55
2023/07/02 05:14:16;;;;;;;14.20;13.60;;;;;;;-141.02;100.00;98465.78;5095882;28;20220;-56
2023/07/02 05:16:46;;;;;;;14.15;13.55;;;;;;;-141.02;100.00;98965.34;5095503;28;20201;-55
2023/07/02 05:19:17;;;;;;;14.25;13.65;;;;;;;-141.02;100.00;98965.34;5095833;28;20576;-54
2023/07/02 05:21:44;;;;;;;14.23;13.63;;;;;;;-141.02;100.00;99215.16;5095428;28;20294;-55
2023/07/02 05:24:11;;;;;;;14.55;13.85;;;;;;;-141.02;100.00;98965.34;5095455;28;20206;-55
2023/07/02 05:26:38;;;;;;;14.70;14.00;;;;;;;-141.02;100.00;98216.03;5095992;28;20326;-56
2023/07/02 05:29:05;;;;;;;14.90;14.15;;;;;;;-141.02;100.00;97966.31;5095336;28;20315;-55
2023/07/02 05:31:34;;;;;;;15.65;14.80;;;;;;;-141.02;100.00;96468.31;5095257;28;20682;-55
2023/07/02 05:34:01;;;;;;;15.85;14.95;;;;;;;-141.02;100.00;96468.31;5095287;28;20243;-55
2023/07/02 05:36:29;;;;;;;15.80;14.90;;;;;;;-141.02;100.00;95969.13;5095230;28;20201;-55
2023/07/02 05:38:56;;;;;;;15.85;14.95;;;;;;;-141.02;100.00;95470.00;5095353;28;20194;-55
2023/07/02 05:41:24;;;;;;;15.90;15.00;;;;;;;-141.02;100.00;94970.94;5095004;28;20197;-55
2023/07/02 05:43:52;;;;;;;15.25;14.45;;;;;;;-141.02;100.00;95969.13;5095027;28;20674;-55
2023/07/02 05:46:19;;;;;;;16.80;15.80;;;;;;;-141.02;100.00;94471.97;5110575;28;20300;-55
2023/07/02 05:48:46;;;;;;;15.65;14.75;;;;;;;-141.02;100.00;95220.47;5115338;28;20197;-55
2023/07/02 05:51:13;;;;;;;15.63;14.73;;;;;;;-141.02;100.00;94721.44;5115672;28;20250;-55
2023/07/02 05:53:42;;;;;;;16.33;15.32;;;;;;;-141.02;100.00;94721.44;5114738;28;20200;-55
2023/07/02 05:56:09;;;;;;;16.02;15.02;;;;;;;-141.02;100.00;94471.97;5115463;28;20710;-55
2023/07/02 05:58:36;;;;;;;16.08;15.07;;;;;;;-141.02;100.00;94471.97;5115104;28;20198;-55
2023/07/02 06:01:05;;;;;;;15.80;14.90;;;;;;;-141.02;100.00;95220.47;5115439;28;20195;-64
2023/07/02 06:03:32;;;;;;;16.17;15.18;;;;;;;-141.02;100.00;94471.97;5114936;28;20225;-55
2023/07/02 06:05:59;;;;;;;16.25;15.25;;;;;;;-141.02;100.00;94721.44;5115333;28;20266;-55
2023/07/02 06:08:26;;;;;;;16.38;15.27;;;;;;;-141.02;100.00;93973.06;5115222;28;20205;-55
2023/07/02 06:10:54;;;;;;;16.70;15.60;;;;;;;-141.02;100.00;92975.47;5115137;28;20250;-63
2023/07/02 06:13:21;;;;;;;16.30;15.20;;;;;;;-141.02;100.00;92975.47;5115210;28;20193;-54
2023/07/02 06:15:48;;;;;;;16.15;15.05;;;;;;;-141.02;100.00;92975.47;5114854;28;20230;-55
2023/07/02 06:18:17;;;;;;;15.88;14.88;;;;;;;-141.02;100.00;93474.22;5114984;28;20251;-54
2023/07/02 06:20:44;;;;;;;15.48;14.55;;;;;;;-141.02;100.00;93474.22;5114660;28;20671;-55
2023/07/02 06:23:11;;;;;;;15.35;14.45;;;;;;;-141.02;100.00;93723.63;5114615;28;20229;-55
2023/07/02 06:25:38;;;;;;;15.13;14.23;;;;;;;-141.02;100.00;93973.06;5114576;28;20197;-67
2023/07/02 06:28:06;;;;;;;15.90;14.90;;;;;;;-141.02;100.00;93224.84;5114986;28;20197;-57
2023/07/02 06:30:33;;;;;;;15.70;14.80;;;;;;;-141.02;100.00;93973.06;5114448;28;20193;-55
2023/07/02 06:33:00;;;;;;;15.88;14.88;;;;;;;-141.02;100.00;93474.22;5114710;28;20247;-57
2023/07/02 06:35:27;;;;;;;15.85;14.85;;;;;;;-141.02;100.00;93224.84;5114724;28;20189;-55
2023/07/02 06:37:54;;;;;;;15.85;14.85;;;;;;;-141.02;100.00;92726.13;5114355;28;20254;-55
2023/07/02 06:40:22;;;;;;;15.88;14.88;;;;;;;-141.02;100.00;93224.84;5114507;28;20201;-55
2023/07/02 06:42:49;;;;;;;15.75;14.75;;;;;;;-141.02;100.00;92975.47;5114447;28;20232;-56
2023/07/02 06:45:18;;;;;;;16.35;15.25;;;;;;;-141.02;100.00;92476.78;5114044;28;20232;-56
2023/07/02 06:47:45;;;;;;;16.63;15.52;;;;;;;-141.02;100.00;92726.13;5114476;28;20193;-55
2023/07/02 06:50:12;;;;;;;17.25;16.05;;;;;;;-141.02;100.00;90981.13;5114103;28;20189;-56
2023/07/02 06:52:38;;;;;;;17.08;15.88;;;;;;;-141.02;100.00;89984.41;5114474;28;20617;-69
2023/07/02 06:55:06;;;;;;;16.90;15.70;;;;;;;-141.02;100.00;90731.94;5114059;28;20663;-55
2023/07/02 06:57:33;;;;;;;15.73;14.73;;;;;;;-141.02;100.00;90981.13;5114322;28;20193;-68
2023/07/02 07:00:00;;;;;;;16.42;15.32;;;;;;;-141.02;100.00;89735.28;5114279;28;20197;-55
2023/07/02 07:02:29;;;;;;;15.70;14.70;;;;;;;-141.02;100.00;91978.16;5114059;28;20286;-55
2023/07/02 07:04:56;;;;;;;15.20;14.30;;;;;;;-141.02;100.00;93474.22;5113187;28;20197;-62
2023/07/02 07:07:24;;;;;;;16.02;15.02;;;;;;;-141.02;100.00;90731.94;5114162;28;20197;-57
2023/07/02 07:09:51;;;;;;;16.60;15.50;;;;;;;-141.02;100.00;90981.13;5114074;28;20198;-55
2023/07/02 07:12:18;;;;;;;16.65;15.55;;;;;;;-141.02;100.00;90731.94;5113950;28;20205;-56
2023/07/02 07:14:45;;;;;;;16.00;15.00;;;;;;;-141.02;100.00;90482.72;5113923;28;20193;-55
2023/07/02 07:17:12;;;;;;;15.90;14.90;;;;;;;-141.02;100.00;90731.94;5113903;28;20189;-55
2023/07/02 07:19:40;;;;;;;16.73;15.63;;;;;;;-141.02;100.00;88240.81;5113602;28;20254;-56
2023/07/02 07:22:07;;;;;;;16.08;15.07;;;;;;;-141.02;100.00;88240.81;5113818;28;20606;-68
2023/07/02 07:24:34;;;;;;;16.00;15.00;;;;;;;-141.02;100.00;88240.81;5113365;28;20721;-57
2023/07/02 07:27:01;;;;;;;15.98;14.98;;;;;;;-141.02;100.00;88987.97;5113454;28;20727;-56
2023/07/02 07:29:28;;;;;;;16.08;15.07;;;;;;;-141.02;100.00;89237.03;5113673;28;20280;-55
2023/07/02 07:31:55;;;;;;;16.08;15.18;;;;;;;-141.02;100.00;89486.16;5113667;28;20234;-55
2023/07/02 07:34:22;;;;;;;15.68;14.77;;;;;;;-141.02;100.00;90731.94;5113591;28;20254;-55
2023/07/02 07:36:51;;;;;;;16.77;15.68;;;;;;;-141.02;100.00;90981.13;5113472;28;20197;-56
2023/07/02 07:39:18;;;;;;;17.45;16.25;;;;;;;-141.02;100.00;90482.72;5113415;28;20242;-57
2023/07/02 07:41:48;;;;;;;17.75;16.45;;;;;;;-141.02;97.52;88489.84;5113405;28;20193;-55
2023/07/02 07:44:15;;;;;;;18.33;16.92;;;;;;;-141.02;92.69;87493.84;5113096;28;20185;-58
2023/07/02 07:46:42;;;;;;;18.20;16.80;;;;;;;-141.02;95.96;86995.94;5112873;28;20251;-59
2023/07/02 07:49:09;;;;;;;17.80;16.50;;;;;;;-141.02;98.81;86747.00;5113324;28;20246;-63
2023/07/02 07:51:36;;;;;;;18.00;16.70;;;;;;;-141.02;97.10;87742.81;5113378;28;20239;-57
2023/07/02 07:54:05;;;;;;;18.52;17.13;;;;;;;-141.02;95.55;88240.81;5113245;28;20204;-61
2023/07/02 07:56:32;;;;;;;18.67;17.17;;;;;;;-141.02;91.91;88240.81;5112843;28;20284;-58
2023/07/02 07:58:59;;;;;;;19.05;17.55;;;;;;;-141.02;91.16;86995.94;5113221;28;20192;-58
2023/07/02 08:01:28;;;;;;;18.38;16.98;;;;;;;-141.02;92.05;87742.81;5113199;28;20216;-64
2023/07/02 08:03:55;;;;;;;19.13;17.63;;;;;;;-141.02;88.81;85502.66;5112660;28;20316;-56
2023/07/02 08:06:22;;;;;;;18.63;17.20;;;;;;;-141.02;91.85;86249.22;5113062;28;20216;-57
2023/07/02 08:08:49;;;;;;;19.08;17.58;;;;;;;-141.02;90.06;87244.88;5113036;28;20231;-58
2023/07/02 08:11:17;;;;;;;18.90;17.40;;;;;;;-141.02;90.01;88489.84;5112695;28;20233;-55
2023/07/02 08:13:44;;;;;;;19.13;17.63;;;;;;;-141.02;88.08;87244.88;5112946;28;20249;-55
2023/07/02 08:16:11;;;;;;;18.83;17.33;;;;;;;-141.02;90.40;85751.50;5112670;28;20193;-59
2023/07/02 08:18:38;;;;;;;19.08;17.58;;;;;;;-141.02;88.45;86249.22;5112459;28;20739;-63
2023/07/02 08:21:06;;;;;;;19.17;17.67;;;;;;;-141.02;85.91;86747.00;5112566;28;20242;-70
2023/07/02 08:23:33;;;;;;;18.92;17.42;;;;;;;-141.02;88.25;86995.94;5112358;28;20736;-64
2023/07/02 08:26:01;;;;;;;18.85;17.35;;;;;;;-141.02;88.23;85005.03;5112436;28;20193;-55
2023/07/02 08:28:30;;;;;;;19.00;17.50;;;;;;;-141.02;85.50;84258.75;5112768;28;20246;-58
2023/07/02 08:30:57;;;;;;;19.05;17.55;;;;;;;-141.02;85.54;84756.25;5112753;28;20201;-55
2023/07/02 08:33:24;;;;;;;19.15;17.65;;;;;;;-141.02;88.66;85005.03;5112430;28;20193;-56
2023/07/02 08:35:51;;;;;;;19.08;17.58;;;;;;;-141.02;86.31;84507.50;5112291;28;20706;-55
2023/07/02 08:38:18;;;;;;;19.30;17.80;;;;;;;-141.02;81.62;86000.34;5112607;28;20231;-67
2023/07/02 08:40:45;;;;;;;19.38;17.83;;;;;;;-141.02;81.14;86498.09;5112575;28;20192;-60
2023/07/02 08:43:12;;;;;;;20.30;18.60;;;;;;;-141.02;79.69;86498.09;5112532;28;20313;-58
2023/07/02 08:45:42;;;;;;;20.90;19.17;;;;;;;-141.02;77.42;83512.63;5112320;28;20356;-65
2023/07/02 08:48:10;;;;;;;19.80;18.20;;;;;;;-141.02;83.64;83015.31;5112201;28;20636;-57
2023/07/02 08:50:37;;;;;;;19.50;18.00;;;;;;;-141.02;83.15;83512.63;5112235;28;20200;-61
2023/07/02 08:53:04;;;;;;;20.75;19.05;;;;;;;-141.02;79.22;82518.06;5112511;28;20197;-59
2023/07/02 08:55:31;;;;;;;20.45;18.75;;;;;;;-141.02;76.80;81523.75;5112300;28;20242;-68
2023/07/02 08:58:00;;;;;;;20.75;18.95;;;;;;;-141.02;76.83;80529.75;5112458;28;20236;-56
2023/07/02 09:00:27;;;;;;;20.15;18.45;;;;;;;-141.02;80.25;81275.25;5112433;28;20591;-55
2023/07/02 09:02:56;;;;;;;19.90;18.25;;;;;;;-141.02;79.90;82020.88;5112094;28;20221;-57
2023/07/02 09:05:23;;;;;;;19.63;18.02;;;;;;;-141.02;80.77;82020.88;5112473;28;20197;-58
2023/07/02 09:07:52;;;;;;;19.70;18.10;;;;;;;-141.02;76.83;82269.47;5112327;28;20193;-56
2023/07/02 09:10:30;;;;;;;21.17;19.38;;;;;;;-141.02;72.86;80281.31;5111989;28;20193;-56
2023/07/02 09:13:06;;;;;;;20.38;18.67;;;;;;;-141.02;73.52;81026.72;5112074;28;20200;-68
2023/07/02 09:15:39;;;;;;;20.85;19.10;;;;;;;-141.02;77.68;81772.31;5112370;28;20609;-56
2023/07/02 09:18:18;;;;;;;21.35;19.55;;;;;;;-141.02;74.40;81275.25;5111890;28;20701;-68
2023/07/02 09:20:45;;;;;;;22.05;20.25;;;;;;;-141.02;73.11;82269.47;5112361;28;20234;-56
2023/07/02 09:23:12;;;;;;;21.83;19.95;;;;;;;-141.02;71.08;82020.88;5112274;28;20225;-60
2023/07/02 09:25:41;;;;;;;22.35;20.45;;;;;;;-141.02;69.31;79784.44;5112232;28;20193;-64
2023/07/02 09:28:22;;;;;;;21.55;19.65;;;;;;;-141.02;72.10;79784.44;5112771;28;20208;-57
2023/07/02 09:30:54;;;;;;;21.48;19.60;;;;;;;-141.02;68.29;78790.94;5115896;28;20201;-73
2023/07/02 09:33:24;;;;;;;21.42;19.52;;;;;;;-141.02;73.54;80032.88;5115646;28;20193;-56
2023/07/02 09:35:51;;;;;;;21.13;19.33;;;;;;;-141.02;71.99;81026.72;5115853;28;20196;-56
2023/07/02 09:38:19;;;;;;;21.48;19.65;;;;;;;-141.02;67.93;78790.94;5115567;28;20658;-61
2023/07/02 09:40:47;;;;;;;22.17;20.27;;;;;;;-141.02;73.11;78790.94;5115741;28;20248;-56
2023/07/02 09:43:15;;;;;;;22.00;20.10;;;;;;;-141.02;70.40;80281.31;5115627;28;20604;-58
2023/07/02 09:45:45;;;;;;;22.70;20.70;;;;;;;-141.02;65.20;78542.63;5115348;28;20262;-56
2023/07/02 09:48:14;;;;;;;22.95;20.95;;;;;;;-141.02;68.48;79039.28;5115647;28;20189;-59
2023/07/02 09:50:44;;;;;;;22.02;20.13;;;;;;;-141.02;65.84;79536.03;5115221;28;20193;-57
2023/07/02 09:53:12;;;;;;;22.65;20.65;;;;;;;-141.02;63.93;76556.59;5115260;28;20189;-61
2023/07/02 09:55:40;;;;;;;22.05;20.05;;;;;;;-141.02;66.13;75315.94;5115583;28;20205;-57
2023/07/02 09:58:07;;;;;;;22.15;20.15;;;;;;;-141.02;69.61;79039.28;5115192;28;20197;-57
2023/07/02 10:00:34;;;;;;;21.92;20.02;;;;;;;-141.02;70.63;81275.25;5115122;28;20694;-57
2023/07/02 10:03:01;;;;;;;21.80;19.90;;;;;;;-141.02;67.44;79784.44;5115002;28;20220;-61
2023/07/02 10:05:30;;;;;;;22.40;20.40;;;;;;;-141.02;62.44;77797.72;5115353;28;20281;-56
2023/07/02 10:07:59;;;;;;;22.38;20.38;;;;;;;-141.02;63.23;76308.44;5115294;28;20208;-63
2023/07/02 10:10:30;;;;;;;22.88;20.77;;;;;;;-141.02;60.66;74819.81;5115213;28;20197;-62
2023/07/02 10:12:57;;;;;;;22.77;20.77;;;;;;;-141.02;58.76;74075.72;5114943;28;20566;-57
2023/07/02 10:15:29;;;;;;;22.55;20.55;;;;;;;-141.02;62.84;75812.16;5115079;28;20189;-68
2023/07/02 10:17:57;;;;;;;23.05;21.05;;;;;;;-141.02;60.24;74571.75;5114759;28;20333;-60
2023/07/02 10:20:34;;;;;;;23.15;21.05;;;;;;;-141.02;58.76;74323.72;5114991;28;20197;-56
2023/07/02 10:23:04;;;;;;;23.08;20.98;;;;;;;-141.02;57.31;72835.97;5114641;28;20300;-60
2023/07/02 10:25:32;;;;;;;23.05;20.98;;;;;;;-141.02;58.00;72588.06;5114903;28;20197;-56
2023/07/02 10:28:00;;;;;;;23.45;21.35;;;;;;;-141.02;57.17;73827.72;5114959;28;20329;-61
2023/07/02 10:30:35;;;;;;;22.52;20.52;;;;;;;-141.02;59.84;75564.03;5114694;28;20227;-56
2023/07/02 10:33:10;;;;;;;23.23;21.13;;;;;;;-141.02;56.70;72588.06;5114474;28;20227;-62
2023/07/02 10:35:37;;;;;;;22.88;20.77;;;;;;;-141.02;60.20;69614.66;5114383;28;20207;-66
2023/07/02 10:38:06;;;;;;;22.80;20.80;;;;;;;-141.02;63.17;68128.91;5114398;28;20197;-57
2023/07/02 10:40:34;;;;;;;22.15;20.15;;;;;;;-141.02;65.07;66891.31;5114190;28;20577;-57
2023/07/02 10:43:01;;;;;;;21.95;20.00;;;;;;;-141.02;65.41;65406.75;5114198;28;20193;-57
2023/07/02 10:45:35;;;;;;;21.95;20.05;;;;;;;-141.02;64.55;64912.06;5114244;28;20693;-56
2023/07/02 10:48:09;;;;;;;22.08;20.17;;;;;;;-141.02;64.15;64417.41;5114478;28;20193;-65
2023/07/02 10:50:36;;;;;;;30.02;27.65;;;;;;;-141.02;66.70;65406.75;5114140;28;20216;-57
2023/07/02 10:53:05;;;;;;;21.83;19.92;;;;;;;-141.02;67.84;64912.06;5114442;28;20197;-58
2023/07/02 10:55:32;;;;;;;21.65;19.75;;;;;;;-141.02;71.57;65159.41;5114329;28;20193;-57
2023/07/02 10:58:06;;;;;;;21.45;19.55;;;;;;;-141.02;73.25;64417.41;5113897;28;20615;-57
2023/07/02 11:00:34;;;;;;;20.58;18.77;;;;;;;-141.02;75.74;64417.41;5114754;28;20197;-62
2023/07/02 11:03:01;;;;;;;20.65;18.85;;;;;;;-141.02;78.37;64664.72;5113831;28;20201;-67
2023/07/02 11:05:28;;;;;;;20.15;18.45;;;;;;;-141.02;79.46;64664.72;5114767;28;20242;-62
2023/07/02 11:07:57;;;;;;;20.17;18.58;;;;;;;-141.02;81.23;64664.72;5114143;28;20192;-62
2023/07/02 11:10:26;;;;;;;15.30;14.50;;;;;;;-141.02;100.00;70605.50;5114050;28;20205;-57
2023/07/02 11:12:53;;;;;;;14.77;14.18;;;;;;;-141.02;100.00;77549.47;5114047;28;20196;-55
2023/07/02 11:15:20;;;;;;;13.93;13.43;;;;;;;-141.02;100.00;81026.72;5113909;28;20287;-55
2023/07/02 11:17:48;;;;;;;12.88;12.48;;;;;;;-141.02;100.00;84010.03;5114013;28;20196;-55
2023/07/02 11:20:15;;;;;;;11.75;11.45;;;;;;;-141.02;100.00;86747.00;5113527;28;20643;-56
2023/07/02 11:22:42;;;;;;;14.70;14.20;;;;;;;-141.02;100.00;90233.56;5113454;28;20193;-54
2023/07/02 11:25:14;;;;;;;17.85;17.15;;;;;;;-141.02;100.00;95719.53;5113693;28;20232;-54
2023/07/02 11:27:42;;;;;;;22.52;21.52;;;;;;;-141.02;100.00;99964.66;5113375;28;20195;-55
2023/07/02 11:30:11;;;;;;;21.90;21.00;;;;;;;-141.02;100.00;97966.31;5113626;28;20197;-57
2023/07/02 11:32:49;;;;;;;26.35;25.05;;;;;;;-141.02;100.00;97716.59;5113642;28;20198;-57